Flight Track Log - Related Links

Times and Time Zones

All times are in EDT time to prevent confusion due to time zone crossing. See the ASA55 flight status page for this flight to view local times or setup timezone preferences in your user account.


Time Position Orientation Groundspeed Altitude Reporting Facility
EDT Latitude Longitude Course Direction KTS MPH feet Rate Location/Type
Fri 03:01:50 PM 71.1833 -156.6833 162° South 230 265 7,400  Level Anchorage Center
Fri 03:02:50 PM 71.1167 -156.6167 162° South 250 288 10,500 2,400 Climbing Anchorage Center
Fri 03:03:50 PM 71.0500 -156.5500 162° South 300 345 12,200 2,450 Climbing Anchorage Center
Fri 03:04:50 PM 70.9667 -156.4667 162° South 310 357 15,400 3,100 Climbing Anchorage Center
Fri 03:05:50 PM 70.8833 -156.4000 165° South 310 357 18,400 2,600 Climbing Anchorage Center
Fri 03:06:00 PM 70.7181 -156.2034 162° South  Level Estimated
Fri 03:06:50 PM 70.8000 -156.3167 162° South 330 380 20,600  Level Anchorage Center
Fri 03:07:00 PM 70.6228 -156.1117 162° South  Level Estimated
Fri 03:07:51 PM 70.7000 -156.2333 165° South 320 368 22,600  Level Anchorage Center
Fri 03:08:51 PM 70.6167 -156.1500 162° South 340 391 24,400 1,850 Climbing Anchorage Center
Fri 03:09:51 PM 70.5167 -156.0500 162° South 360 414 26,300 1,750 Climbing Anchorage Center
Fri 03:10:51 PM 70.4167 -155.9667 164° South 380 437 27,900 1,600 Climbing Anchorage Center
Fri 03:11:51 PM 70.3333 -155.8833 161° South 360 414 29,500 1,550 Climbing Anchorage Center
Fri 03:12:51 PM 70.2167 -155.8000 166° South 380 437 31,000 750 Climbing Anchorage Center
Fri 03:13:51 PM 70.1333 -155.7000 158° South 360 414 31,000  Level Anchorage Center
Fri 03:14:51 PM 70.0333 -155.6167 164° South 360 414 31,000  Level Anchorage Center
Fri 03:15:51 PM 69.9333 -155.5333 164° South 370 426 31,000  Level Anchorage Center
Fri 03:16:51 PM 69.8333 -155.4500 164° South 370 426 31,000  Level Anchorage Center
Fri 03:17:52 PM 69.7333 -155.3667 164° South 370 426 31,000  Level Anchorage Center
Fri 03:18:52 PM 69.6333 -155.2833 164° South 370 426 31,000  Level Anchorage Center
Fri 03:19:52 PM 69.5333 -155.2000 164° South 370 426 31,000  Level Anchorage Center
Fri 03:20:52 PM 69.4333 -155.1167 164° South 360 414 31,000  Level Anchorage Center
Fri 03:21:52 PM 69.3333 -155.0333 164° South 380 437 31,000  Level Anchorage Center
Fri 03:22:52 PM 69.2500 -154.9667 164° South 370 426 31,000  Level Anchorage Center
Fri 03:23:52 PM 69.1333 -154.8833 166° South 380 437 31,000  Level Anchorage Center
Fri 03:24:52 PM 69.0500 -154.8167 164° South 380 437 31,000  Level Anchorage Center
Fri 03:25:53 PM 68.9333 -154.7167 163° South 370 426 31,000  Level Anchorage Center
Fri 03:26:53 PM 68.8333 -154.6500 166° South 370 426 31,000  Level Anchorage Center
Fri 03:27:52 PM 68.7500 -154.6000 168° South 370 426 31,000  Level Anchorage Center
Fri 03:28:53 PM 68.6333 -154.4833 160° South 360 414 31,000  Level Anchorage Center
Fri 03:29:53 PM 68.5500 -154.4167 164° South 390 449 31,000  Level Anchorage Center
Fri 03:30:53 PM 68.4500 -154.3333 163° South 360 414 31,000  Level Anchorage Center
Fri 03:31:53 PM 68.3500 -154.2833 170° South 360 414 31,000  Level Anchorage Center
Fri 03:32:53 PM 68.2667 -154.2000 160° South 370 426 31,000  Level Anchorage Center
Fri 03:33:53 PM 68.1667 -154.1333 166° South 370 426 31,000  Level Anchorage Center
Fri 03:34:53 PM 68.0667 -154.0500 163° South 370 426 31,000  Level Anchorage Center
Fri 03:35:53 PM 67.9667 -153.9833 166° South 350 403 31,000  Level Anchorage Center
Fri 03:36:53 PM 67.8667 -153.9167 166° South 370 426 31,000  Level Anchorage Center
Fri 03:37:53 PM 67.7667 -153.8500 166° South 360 414 31,000  Level Anchorage Center
Fri 03:38:54 PM 67.6667 -153.7833 166° South 360 414 31,000  Level Anchorage Center
Fri 03:39:54 PM 67.5667 -153.7167 166° South 360 414 31,000  Level Anchorage Center
Fri 03:40:54 PM 67.4833 -153.6500 163° South 360 414 31,000  Level Anchorage Center
Fri 03:41:54 PM 67.3833 -153.5833 166° South 350 403 31,000  Level Anchorage Center
Fri 03:42:54 PM 67.2833 -153.5167 166° South 370 426 31,000  Level Anchorage Center
Fri 03:43:54 PM 67.1833 -153.4500 166° South 350 403 31,000  Level Anchorage Center
Fri 03:44:54 PM 67.0833 -153.3833 165° South 360 414 31,000  Level Anchorage Center
Fri 03:45:55 PM 67.0000 -153.3167 163° South 360 414 31,000  Level Anchorage Center
Fri 03:46:54 PM 66.9000 -153.2500 165° South 350 403 31,000  Level Anchorage Center
Fri 03:47:54 PM 66.8000 -153.2000 169° South 360 414 31,000  Level Anchorage Center
Fri 03:48:55 PM 66.7000 -153.1333 165° South 360 414 31,000  Level Anchorage Center
Fri 03:49:55 PM 66.6167 -153.0667 162° South 350 403 31,000  Level Anchorage Center
Fri 03:50:55 PM 66.5167 -153.0167 169° South 340 391 31,000  Level Anchorage Center
Fri 03:51:55 PM 66.4167 -152.9500 165° South 350 403 31,000  Level Anchorage Center
Fri 03:52:55 PM 66.3167 -152.8833 165° South 360 414 31,000  Level Anchorage Center
Fri 03:53:55 PM 66.2333 -152.8333 166° South 350 403 31,000  Level Anchorage Center
Fri 03:54:55 PM 66.1333 -152.7667 165° South 350 403 31,000  Level Anchorage Center
Fri 03:55:55 PM 66.0333 -152.7167 169° South 360 414 31,000  Level Anchorage Center
Fri 03:56:55 PM 65.9333 -152.6500 165° South 350 403 31,000  Level Anchorage Center
Fri 03:57:56 PM 65.8333 -152.6000 168° South 360 414 31,000  Level Anchorage Center
Fri 03:58:55 PM 65.7500 -152.5333 162° South 350 403 31,000  Level Anchorage Center
Fri 03:59:56 PM 65.6500 -152.4833 168° South 360 414 31,000  Level Anchorage Center
Fri 04:00:56 PM 65.5500 -152.4167 165° South 350 403 31,000  Level Anchorage Center
Fri 04:01:56 PM 65.4500 -152.3667 168° South 350 403 31,000  Level Anchorage Center
Fri 04:02:56 PM 65.3667 -152.3167 166° South 360 414 31,000  Level Anchorage Center
Fri 04:03:56 PM 65.2667 -152.2667 168° South 350 403 31,000  Level Anchorage Center
Fri 04:04:56 PM 65.1667 -152.2000 164° South 350 403 31,000  Level Anchorage Center
Fri 04:05:56 PM 65.0667 -152.1500 168° South 350 403 31,000  Level Anchorage Center
Fri 04:06:57 PM 64.9833 -152.1000 166° South 350 403 31,000  Level Anchorage Center
Fri 04:07:56 PM 64.8833 -152.0333 164° South 350 403 31,000  Level Anchorage Center
Fri 04:08:57 PM 64.7833 -151.9833 168° South 360 414 31,000  Level Anchorage Center
Fri 04:09:57 PM 64.6833 -151.9500 172° South 340 391 31,000  Level Anchorage Center
Fri 04:10:57 PM 64.6000 -151.8833 161° South 350 403 31,000  Level Anchorage Center
Fri 04:12:00 PM 64.5013 -151.8310 167° South  Level FlightAware Approximate
Fri 04:12:57 PM 64.4000 -151.7833 167° South 360 414 31,000  Level Anchorage Center
Fri 04:13:57 PM 64.3000 -151.7333 168° South 350 403 31,000  Level Anchorage Center
Fri 04:14:57 PM 64.2000 -151.6833 168° South 360 414 31,000  Level Anchorage Center
Fri 04:15:57 PM 64.1167 -151.6333 165° South 340 391 31,000  Level Anchorage Center
Fri 04:16:58 PM 64.0167 -151.5833 168° South 360 414 31,000  Level Anchorage Center
Fri 04:17:58 PM 63.9167 -151.5333 168° South 350 403 31,000  Level Anchorage Center
Fri 04:18:58 PM 63.8167 -151.4833 168° South 360 414 31,000  Level Anchorage Center
Fri 04:19:58 PM 63.7333 -151.4333 165° South 350 403 31,000  Level Anchorage Center
Fri 04:20:58 PM 63.6333 -151.3833 167° South 340 391 31,000  Level Anchorage Center
Fri 04:21:58 PM 63.5333 -151.3333 167° South 350 403 31,000  Level Anchorage Center
Fri 04:22:58 PM 63.4333 -151.2833 167° South 340 391 31,000  Level Anchorage Center
Fri 04:23:58 PM 63.3333 -151.2333 167° South 350 403 31,000  Level Anchorage Center
Fri 04:24:59 PM 63.2500 -151.1833 165° South 340 391 31,000  Level Anchorage Center
Fri 04:25:58 PM 63.1500 -151.1500 171° South 360 414 31,000  Level Anchorage Center
Fri 04:26:58 PM 63.0333 -151.0833 165° South 380 437 31,000  Level Anchorage Center
Fri 04:27:59 PM 62.9500 -151.0333 165° South 360 414 31,000  Level Anchorage Center
Fri 04:28:59 PM 62.8500 -151.0000 171° South 350 403 31,000  Level Anchorage Center
Fri 04:29:59 PM 62.7500 -150.9500 167° South 350 403 31,000  Level Anchorage Center
Fri 04:30:59 PM 62.6500 -150.9000 167° South 350 403 31,000  Level Anchorage Center
Fri 04:31:59 PM 62.5667 -150.8667 170° South 350 403 31,000 -750 Level Anchorage Center
Fri 04:32:59 PM 62.4667 -150.8167 167° South 350 403 29,500 -1,950 Descending Anchorage Center
Fri 04:33:59 PM 62.3667 -150.7667 167° South 330 380 27,100 -2,250 Descending Anchorage Center
Fri 04:34:59 PM 62.2833 -150.7333 169° South 310 357 25,000 -2,150 Descending Anchorage Center
Fri 04:35:59 PM 62.2167 -150.7000 167° South 300 345 22,800 -2,033 Descending Anchorage Center
Fri 04:37:00 PM 62.1333 -150.6667 169° South 300 345 20,900 -1,983 Descending Anchorage Center
Fri 04:38:00 PM 62.0500 -150.6167 164° South 310 357 18,800 -2,350 Descending Anchorage Center
Fri 04:39:00 PM 61.9667 -150.5833 169° South 300 345 16,200 -2,050 Descending Anchorage Center
Fri 04:40:00 PM 61.8833 -150.5500 169° South 290 334 14,700 -1,500 Descending Anchorage Center
Fri 04:41:00 PM 61.7905 -150.5035 167° South  Level FlightAware Approximate
Fri 04:48:00 PM 61.1799 -149.9632 154° Southeast  Level FlightAware Approximate
Fri 04:49:00 PM 61.1667 -149.9833 270° West  Level FlightAware Approximate
Fri 04:50:00 PM 61.1741 -149.9982 270° West  Level Estimated
Fri 04:51:00 PM 61.1741 -149.9982 270° West  Level Estimated
Fri 04:52:00 PM 61.1741 -149.9982 270° West  Level Estimated
Fri 04:53:00 PM 61.1741 -149.9982 270° West  Level Estimated
Fri 04:54:00 PM 61.1741 -149.9982 270° West  Level Estimated
Fri 04:55:00 PM 61.1741 -149.9982 270° West  Level Estimated
Fri 04:56:00 PM 61.1741 -149.9982 270° West  Level Estimated
Fri 04:57:00 PM 61.1741 -149.9982 270° West  Level Estimated
Fri 04:58:00 PM 61.1741 -149.9982 270° West  Level Estimated
Fri 04:59:00 PM 61.1741 -149.9982 270° West  Level Estimated
Fri 05:00:00 PM 61.1741 -149.9982 270° West  Level Estimated
Fri 05:01:00 PM 61.1741 -149.9982 270° West  Level Estimated

Login

Don't have an account? Register now (free) for customized features, flight alerts, and more!